Aviation Digital Data Service (ADDS)

Output produced by METARs form (2115 UTC 16 February 2019)
found at http://www.aviationweather.gov/metar/data/
 
METAR text: LEAB 162100Z 11005KT CAVOK 05/02 Q1027 NOSIG
Conditions at: LEAB (ALBACETE (CIV/MI, ES) observed 2100 UTC 16 February 2019
Temperature: 5.0°C (41°F)
Dewpoint: 2.0°C (36°F) [RH = 81%]
Pressure (altimeter): 30.32 inches Hg (1027.0 mb)
Winds: from the ESE (110 degrees) at 6 MPH (5 knots; 2.6 m/s)
Visibility: 6 or more miles (10+ km)
Ceiling: ceiling and visibility are OK
Clouds: unknown
Weather: no significant weather observed at this time

METAR text: LEAB 162000Z 13007KT CAVOK 08/02 Q1027 NOSIG
Conditions at: LEAB (ALBACETE (CIV/MI, ES) observed 2000 UTC 16 February 2019
Temperature: 8.0°C (46°F)
Dewpoint: 2.0°C (36°F) [RH = 66%]
Pressure (altimeter): 30.32 inches Hg (1027.0 mb)
Winds: from the SE (130 degrees) at 8 MPH (7 knots; 3.6 m/s)
Visibility: 6 or more miles (10+ km)
Ceiling: ceiling and visibility are OK
Clouds: unknown
Weather: no significant weather observed at this time

METAR text: LEAB 161900Z 12007KT CAVOK 09/01 Q1026 NOSIG
Conditions at: LEAB (ALBACETE (CIV/MI, ES) observed 1900 UTC 16 February 2019
Temperature: 9.0°C (48°F)
Dewpoint: 1.0°C (34°F) [RH = 57%]
Pressure (altimeter): 30.30 inches Hg (1026.0 mb)
Winds: from the ESE (120 degrees) at 8 MPH (7 knots; 3.6 m/s)
Visibility: 6 or more miles (10+ km)
Ceiling: ceiling and visibility are OK
Clouds: unknown
Weather: no significant weather observed at this time

METAR text: LEAB 161800Z 11007KT CAVOK 11/M04 Q1025 NOSIG
Conditions at: LEAB (ALBACETE (CIV/MI, ES) observed 1800 UTC 16 February 2019
Temperature: 11.0°C (52°F)
Dewpoint: -4.0°C (25°F) [RH = 35%]
Pressure (altimeter): 30.27 inches Hg (1025.0 mb)
Winds: from the ESE (110 degrees) at 8 MPH (7 knots; 3.6 m/s)
Visibility: 6 or more miles (10+ km)
Ceiling: ceiling and visibility are OK
Clouds: unknown
Weather: no significant weather observed at this time

METAR text: LEAB 161700Z 13009KT 100V170 CAVOK 14/M04 Q1025 NOSIG
Conditions at: LEAB (ALBACETE (CIV/MI, ES) observed 1700 UTC 16 February 2019
Temperature: 14.0°C (57°F)
Dewpoint: -4.0°C (25°F) [RH = 28%]
Pressure (altimeter): 30.27 inches Hg (1025.0 mb)
Winds: from the SE (130 degrees) at 10 MPH (9 knots; 4.6 m/s)
Visibility: 6 or more miles (10+ km)
Ceiling: ceiling and visibility are OK
Clouds: unknown
Weather: no significant weather observed at this time

METAR text: LEAB 161600Z 13010KT CAVOK 15/M08 Q1025 NOSIG
Conditions at: LEAB (ALBACETE (CIV/MI, ES) observed 1600 UTC 16 February 2019
Temperature: 15.0°C (59°F)
Dewpoint: -8.0°C (18°F) [RH = 20%]
Pressure (altimeter): 30.27 inches Hg (1025.0 mb)
Winds: from the SE (130 degrees) at 12 MPH (10 knots; 5.1 m/s)
Visibility: 6 or more miles (10+ km)
Ceiling: ceiling and visibility are OK
Clouds: unknown
Weather: no significant weather observed at this time

METAR text: LEAB 161500Z 15011KT 110V180 CAVOK 15/M03 Q1026 NOSIG
Conditions at: LEAB (ALBACETE (CIV/MI, ES) observed 1500 UTC 16 February 2019
Temperature: 15.0°C (59°F)
Dewpoint: -3.0°C (27°F) [RH = 29%]
Pressure (altimeter): 30.30 inches Hg (1026.0 mb)
Winds: from the SSE (150 degrees) at 13 MPH (11 knots; 5.7 m/s)
Visibility: 6 or more miles (10+ km)
Ceiling: ceiling and visibility are OK
Clouds: unknown
Weather: no significant weather observed at this time

METAR text: LEAB 161400Z 15011KT 120V190 CAVOK 15/M00 Q1026 NOSIG
Conditions at: LEAB (ALBACETE (CIV/MI, ES) observed 1400 UTC 16 February 2019
Temperature: 15.0°C (59°F)
Dewpoint: 0.0°C (32°F) [RH = 36%]
Pressure (altimeter): 30.30 inches Hg (1026.0 mb)
Winds: from the SSE (150 degrees) at 13 MPH (11 knots; 5.7 m/s)
Visibility: 6 or more miles (10+ km)
Ceiling: ceiling and visibility are OK
Clouds: unknown
Weather: no significant weather observed at this time

METAR text: LEAB 161300Z 15009KT 110V180 CAVOK 15/00 Q1027 NOSIG
Conditions at: LEAB (ALBACETE (CIV/MI, ES) observed 1300 UTC 16 February 2019
Temperature: 15.0°C (59°F)
Dewpoint: 0.0°C (32°F) [RH = 36%]
Pressure (altimeter): 30.32 inches Hg (1027.0 mb)
Winds: from the SSE (150 degrees) at 10 MPH (9 knots; 4.6 m/s)
Visibility: 6 or more miles (10+ km)
Ceiling: ceiling and visibility are OK
Clouds: unknown
Weather: no significant weather observed at this time

METAR text: LEAB 161200Z VRB09KT CAVOK 13/M01 Q1028 NOSIG
Conditions at: LEAB (ALBACETE (CIV/MI, ES) observed 1200 UTC 16 February 2019
Temperature: 13.0°C (55°F)
Dewpoint: -1.0°C (30°F) [RH = 38%]
Pressure (altimeter): 30.35 inches Hg (1028.0 mb)
Winds: variable direction winds at 10 MPH (9 knots; 4.6 m/s)
Visibility: 6 or more miles (10+ km)
Ceiling: ceiling and visibility are OK
Clouds: unknown
Weather: no significant weather observed at this time

METAR text: LEAB 161100Z 12010KT 090V160 CAVOK 11/02 Q1028 NOSIG
Conditions at: LEAB (ALBACETE (CIV/MI, ES) observed 1100 UTC 16 February 2019
Temperature: 11.0°C (52°F)
Dewpoint: 2.0°C (36°F) [RH = 54%]
Pressure (altimeter): 30.35 inches Hg (1028.0 mb)
Winds: from the ESE (120 degrees) at 12 MPH (10 knots; 5.1 m/s)
Visibility: 6 or more miles (10+ km)
Ceiling: ceiling and visibility are OK
Clouds: unknown
Weather: no significant weather observed at this time

METAR text: LEAB 161000Z 13010KT 9999 FEW010 08/02 Q1029 NOSIG
Conditions at: LEAB (ALBACETE (CIV/MI, ES) observed 1000 UTC 16 February 2019
Temperature: 8.0°C (46°F)
Dewpoint: 2.0°C (36°F) [RH = 66%]
Pressure (altimeter): 30.38 inches Hg (1029.0 mb)
Winds: from the SE (130 degrees) at 12 MPH (10 knots; 5.1 m/s)
Visibility: 6 or more miles (10+ km)
Ceiling: at least 12,000 feet AGL
Clouds: few clouds at 1000 feet AGL
Weather: no significant weather observed at this time

METAR text: LEAB 160900Z 14009KT 110V170 9999 FEW010 05/02 Q1028 NOSIG
Conditions at: LEAB (ALBACETE (CIV/MI, ES) observed 0900 UTC 16 February 2019
Temperature: 5.0°C (41°F)
Dewpoint: 2.0°C (36°F) [RH = 81%]
Pressure (altimeter): 30.35 inches Hg (1028.0 mb)
Winds: from the SE (140 degrees) at 10 MPH (9 knots; 4.6 m/s)
Visibility: 6 or more miles (10+ km)
Ceiling: at least 12,000 feet AGL
Clouds: few clouds at 1000 feet AGL
Weather: no significant weather observed at this time

METAR text: LEAB 160820Z 13008KT 100V160 9999 SCT007 04/02 Q1028 TEMPO BKN010
Conditions at: LEAB (ALBACETE (CIV/MI, ES) observed 0820 UTC 16 February 2019
Temperature: 4.0°C (39°F)
Dewpoint: 2.0°C (36°F) [RH = 87%]
Pressure (altimeter): 30.35 inches Hg (1028.0 mb)
Winds: from the SE (130 degrees) at 9 MPH (8 knots; 4.1 m/s)
Visibility: 6 or more miles (10+ km)
Ceiling: at least 12,000 feet AGL
Clouds: scattered clouds at 700 feet AGL
Weather: no significant weather observed at this time

METAR text: LEAB 160800Z 13008KT 110V170 9000 BKN007 03/02 Q1028 BECMG SCT008
Conditions at: LEAB (ALBACETE (CIV/MI, ES) observed 0800 UTC 16 February 2019
Temperature: 3.0°C (37°F)
Dewpoint: 2.0°C (36°F) [RH = 93%]
Pressure (altimeter): 30.35 inches Hg (1028.0 mb)
Winds: from the SE (130 degrees) at 9 MPH (8 knots; 4.1 m/s)
Visibility: 6 miles ( 9 km)
Ceiling: 700 feet AGL
Clouds: broken clouds at 700 feet AGL
Weather: no significant weather observed at this time

METAR text: LEAB 160700Z 12007KT 8000 OVC006 03/02 Q1027 NOSIG
Conditions at: LEAB (ALBACETE (CIV/MI, ES) observed 0700 UTC 16 February 2019
Temperature: 3.0°C (37°F)
Dewpoint: 2.0°C (36°F) [RH = 93%]
Pressure (altimeter): 30.32 inches Hg (1027.0 mb)
Winds: from the ESE (120 degrees) at 8 MPH (7 knots; 3.6 m/s)
Visibility: 5 miles ( 8 km)
Ceiling: 600 feet AGL
Clouds: overcast cloud deck at 600 feet AGL
Weather: no significant weather observed at this time

METAR text: LEAB 160600Z 14006KT 9999 BKN007 04/03 Q1027 NOSIG
Conditions at: LEAB (ALBACETE (CIV/MI, ES) observed 0600 UTC 16 February 2019
Temperature: 4.0°C (39°F)
Dewpoint: 3.0°C (37°F) [RH = 93%]
Pressure (altimeter): 30.32 inches Hg (1027.0 mb)
Winds: from the SE (140 degrees) at 7 MPH (6 knots; 3.1 m/s)
Visibility: 6 or more miles (10+ km)
Ceiling: 700 feet AGL
Clouds: broken clouds at 700 feet AGL
Weather: no significant weather observed at this time

METAR text: LEAB 160500Z 13007KT 100V160 9999 BKN008 05/04 Q1027 NOSIG
Conditions at: LEAB (ALBACETE (CIV/MI, ES) observed 0500 UTC 16 February 2019
Temperature: 5.0°C (41°F)
Dewpoint: 4.0°C (39°F) [RH = 93%]
Pressure (altimeter): 30.32 inches Hg (1027.0 mb)
Winds: from the SE (130 degrees) at 8 MPH (7 knots; 3.6 m/s)
Visibility: 6 or more miles (10+ km)
Ceiling: 800 feet AGL
Clouds: broken clouds at 800 feet AGL
Weather: no significant weather observed at this time

METAR text: LEAB 160400Z 13005KT 8000 BKN007 05/04 Q1027 NOSIG
Conditions at: LEAB (ALBACETE (CIV/MI, ES) observed 0400 UTC 16 February 2019
Temperature: 5.0°C (41°F)
Dewpoint: 4.0°C (39°F) [RH = 93%]
Pressure (altimeter): 30.32 inches Hg (1027.0 mb)
Winds: from the SE (130 degrees) at 6 MPH (5 knots; 2.6 m/s)
Visibility: 5 miles ( 8 km)
Ceiling: 700 feet AGL
Clouds: broken clouds at 700 feet AGL
Weather: no significant weather observed at this time

METAR text: LEAB 160300Z 11007KT 8000 BKN008 05/04 Q1027 NOSIG
Conditions at: LEAB (ALBACETE (CIV/MI, ES) observed 0300 UTC 16 February 2019
Temperature: 5.0°C (41°F)
Dewpoint: 4.0°C (39°F) [RH = 93%]
Pressure (altimeter): 30.32 inches Hg (1027.0 mb)
Winds: from the ESE (110 degrees) at 8 MPH (7 knots; 3.6 m/s)
Visibility: 5 miles ( 8 km)
Ceiling: 800 feet AGL
Clouds: broken clouds at 800 feet AGL
Weather: no significant weather observed at this time

METAR text: LEAB 160200Z 11007KT 8000 BKN008 05/05 Q1027 NOSIG
Conditions at: LEAB (ALBACETE (CIV/MI, ES) observed 0200 UTC 16 February 2019
Temperature: 5.0°C (41°F)
Dewpoint: 5.0°C (41°F) [RH = 100%]
Pressure (altimeter): 30.32 inches Hg (1027.0 mb)
Winds: from the ESE (110 degrees) at 8 MPH (7 knots; 3.6 m/s)
Visibility: 5 miles ( 8 km)
Ceiling: 800 feet AGL
Clouds: broken clouds at 800 feet AGL
Weather: no significant weather observed at this time

METAR text: LEAB 160100Z 10009KT 8000 BKN010 06/05 Q1028 NOSIG
Conditions at: LEAB (ALBACETE (CIV/MI, ES) observed 0100 UTC 16 February 2019
Temperature: 6.0°C (43°F)
Dewpoint: 5.0°C (41°F) [RH = 93%]
Pressure (altimeter): 30.35 inches Hg (1028.0 mb)
Winds: from the E (100 degrees) at 10 MPH (9 knots; 4.6 m/s)
Visibility: 5 miles ( 8 km)
Ceiling: 1000 feet AGL
Clouds: broken clouds at 1000 feet AGL
Weather: no significant weather observed at this time

METAR text: LEAB 160000Z 11005KT 8000 BKN010 06/05 Q1028 NOSIG
Conditions at: LEAB (ALBACETE (CIV/MI, ES) observed 0000 UTC 16 February 2019
Temperature: 6.0°C (43°F)
Dewpoint: 5.0°C (41°F) [RH = 93%]
Pressure (altimeter): 30.35 inches Hg (1028.0 mb)
Winds: from the ESE (110 degrees) at 6 MPH (5 knots; 2.6 m/s)
Visibility: 5 miles ( 8 km)
Ceiling: 1000 feet AGL
Clouds: broken clouds at 1000 feet AGL
Weather: no significant weather observed at this time

METAR text: LEAB 152300Z 11008KT 9999 BKN009 06/05 Q1028 NOSIG
Conditions at: LEAB (ALBACETE (CIV/MI, ES) observed 2300 UTC 15 February 2019
Temperature: 6.0°C (43°F)
Dewpoint: 5.0°C (41°F) [RH = 93%]
Pressure (altimeter): 30.35 inches Hg (1028.0 mb)
Winds: from the ESE (110 degrees) at 9 MPH (8 knots; 4.1 m/s)
Visibility: 6 or more miles (10+ km)
Ceiling: 900 feet AGL
Clouds: broken clouds at 900 feet AGL
Weather: no significant weather observed at this time

METAR text: LEAB 152200Z 12005KT 9999 BKN008 06/06 Q1028 NOSIG
Conditions at: LEAB (ALBACETE (CIV/MI, ES) observed 2200 UTC 15 February 2019
Temperature: 6.0°C (43°F)
Dewpoint: 6.0°C (43°F) [RH = 100%]
Pressure (altimeter): 30.35 inches Hg (1028.0 mb)
Winds: from the ESE (120 degrees) at 6 MPH (5 knots; 2.6 m/s)
Visibility: 6 or more miles (10+ km)
Ceiling: 800 feet AGL
Clouds: broken clouds at 800 feet AGL
Weather: no significant weather observed at this time

METAR text: LEAB 152100Z 14005KT CAVOK 05/04 Q1027 NOSIG
Conditions at: LEAB (ALBACETE (CIV/MI, ES) observed 2100 UTC 15 February 2019
Temperature: 5.0°C (41°F)
Dewpoint: 4.0°C (39°F) [RH = 93%]
Pressure (altimeter): 30.32 inches Hg (1027.0 mb)
Winds: from the SE (140 degrees) at 6 MPH (5 knots; 2.6 m/s)
Visibility: 6 or more miles (10+ km)
Ceiling: ceiling and visibility are OK
Clouds: unknown
Weather: no significant weather observed at this time

METAR text: LEAB 152000Z 11005KT CAVOK 06/03 Q1027 NOSIG
Conditions at: LEAB (ALBACETE (CIV/MI, ES) observed 2000 UTC 15 February 2019
Temperature: 6.0°C (43°F)
Dewpoint: 3.0°C (37°F) [RH = 81%]
Pressure (altimeter): 30.32 inches Hg (1027.0 mb)
Winds: from the ESE (110 degrees) at 6 MPH (5 knots; 2.6 m/s)
Visibility: 6 or more miles (10+ km)
Ceiling: ceiling and visibility are OK
Clouds: unknown
Weather: no significant weather observed at this time

METAR text: LEAB 151900Z 14003KT CAVOK 08/03 Q1027 NOSIG
Conditions at: LEAB (ALBACETE (CIV/MI, ES) observed 1900 UTC 15 February 2019
Temperature: 8.0°C (46°F)
Dewpoint: 3.0°C (37°F) [RH = 71%]
Pressure (altimeter): 30.32 inches Hg (1027.0 mb)
Winds: from the SE (140 degrees) at 3 MPH (3 knots; 1.5 m/s)
Visibility: 6 or more miles (10+ km)
Ceiling: ceiling and visibility are OK
Clouds: unknown
Weather: no significant weather observed at this time

METAR text: LEAB 151800Z 17005KT 140V200 CAVOK 11/04 Q1026 NOSIG
Conditions at: LEAB (ALBACETE (CIV/MI, ES) observed 1800 UTC 15 February 2019
Temperature: 11.0°C (52°F)
Dewpoint: 4.0°C (39°F) [RH = 62%]
Pressure (altimeter): 30.30 inches Hg (1026.0 mb)
Winds: from the S (170 degrees) at 6 MPH (5 knots; 2.6 m/s)
Visibility: 6 or more miles (10+ km)
Ceiling: ceiling and visibility are OK
Clouds: unknown
Weather: no significant weather observed at this time

METAR text: LEAB 151700Z 15008KT CAVOK 14/03 Q1026 NOSIG
Conditions at: LEAB (ALBACETE (CIV/MI, ES) observed 1700 UTC 15 February 2019
Temperature: 14.0°C (57°F)
Dewpoint: 3.0°C (37°F) [RH = 47%]
Pressure (altimeter): 30.30 inches Hg (1026.0 mb)
Winds: from the SSE (150 degrees) at 9 MPH (8 knots; 4.1 m/s)
Visibility: 6 or more miles (10+ km)
Ceiling: ceiling and visibility are OK
Clouds: unknown
Weather: no significant weather observed at this time

METAR text: LEAB 151600Z 15011KT CAVOK 15/03 Q1026 NOSIG
Conditions at: LEAB (ALBACETE (CIV/MI, ES) observed 1600 UTC 15 February 2019
Temperature: 15.0°C (59°F)
Dewpoint: 3.0°C (37°F) [RH = 44%]
Pressure (altimeter): 30.30 inches Hg (1026.0 mb)
Winds: from the SSE (150 degrees) at 13 MPH (11 knots; 5.7 m/s)
Visibility: 6 or more miles (10+ km)
Ceiling: ceiling and visibility are OK
Clouds: unknown
Weather: no significant weather observed at this time

METAR text: LEAB 151500Z 14010KT 110V170 CAVOK 15/03 Q1026 NOSIG
Conditions at: LEAB (ALBACETE (CIV/MI, ES) observed 1500 UTC 15 February 2019
Temperature: 15.0°C (59°F)
Dewpoint: 3.0°C (37°F) [RH = 44%]
Pressure (altimeter): 30.30 inches Hg (1026.0 mb)
Winds: from the SE (140 degrees) at 12 MPH (10 knots; 5.1 m/s)
Visibility: 6 or more miles (10+ km)
Ceiling: ceiling and visibility are OK
Clouds: unknown
Weather: no significant weather observed at this time

METAR text: LEAB 151400Z 14010KT 110V170 CAVOK 14/04 Q1027 NOSIG
Conditions at: LEAB (ALBACETE (CIV/MI, ES) observed 1400 UTC 15 February 2019
Temperature: 14.0°C (57°F)
Dewpoint: 4.0°C (39°F) [RH = 51%]
Pressure (altimeter): 30.32 inches Hg (1027.0 mb)
Winds: from the SE (140 degrees) at 12 MPH (10 knots; 5.1 m/s)
Visibility: 6 or more miles (10+ km)
Ceiling: ceiling and visibility are OK
Clouds: unknown
Weather: no significant weather observed at this time

METAR text: LEAB 151300Z 14008KT 090V180 CAVOK 12/04 Q1028 NOSIG
Conditions at: LEAB (ALBACETE (CIV/MI, ES) observed 1300 UTC 15 February 2019
Temperature: 12.0°C (54°F)
Dewpoint: 4.0°C (39°F) [RH = 58%]
Pressure (altimeter): 30.35 inches Hg (1028.0 mb)
Winds: from the SE (140 degrees) at 9 MPH (8 knots; 4.1 m/s)
Visibility: 6 or more miles (10+ km)
Ceiling: ceiling and visibility are OK
Clouds: unknown
Weather: no significant weather observed at this time

METAR text: LEAB 151200Z 13009KT 090V170 CAVOK 10/04 Q1029 NOSIG
Conditions at: LEAB (ALBACETE (CIV/MI, ES) observed 1200 UTC 15 February 2019
Temperature: 10.0°C (50°F)
Dewpoint: 4.0°C (39°F) [RH = 66%]
Pressure (altimeter): 30.38 inches Hg (1029.0 mb)
Winds: from the SE (130 degrees) at 10 MPH (9 knots; 4.6 m/s)
Visibility: 6 or more miles (10+ km)
Ceiling: ceiling and visibility are OK
Clouds: unknown
Weather: no significant weather observed at this time

METAR text: LEAB 151100Z 14008KT 080V180 9999 SCT015 09/04 Q1030 NOSIG
Conditions at: LEAB (ALBACETE (CIV/MI, ES) observed 1100 UTC 15 February 2019
Temperature: 9.0°C (48°F)
Dewpoint: 4.0°C (39°F) [RH = 71%]
Pressure (altimeter): 30.41 inches Hg (1030.0 mb)
Winds: from the SE (140 degrees) at 9 MPH (8 knots; 4.1 m/s)
Visibility: 6 or more miles (10+ km)
Ceiling: at least 12,000 feet AGL
Clouds: scattered clouds at 1500 feet AGL
Weather: no significant weather observed at this time

METAR text: LEAB 151000Z 14006KT 090V180 9999 OVC010 07/04 Q1030 NOSIG
Conditions at: LEAB (ALBACETE (CIV/MI, ES) observed 1000 UTC 15 February 2019
Temperature: 7.0°C (45°F)
Dewpoint: 4.0°C (39°F) [RH = 81%]
Pressure (altimeter): 30.41 inches Hg (1030.0 mb)
Winds: from the SE (140 degrees) at 7 MPH (6 knots; 3.1 m/s)
Visibility: 6 or more miles (10+ km)
Ceiling: 1000 feet AGL
Clouds: overcast cloud deck at 1000 feet AGL
Weather: no significant weather observed at this time

Forecast for: LEAB (ALBACETE (CIV/MI, ES)
Text: TAF LEAB 162000Z 1621/1706 11005KT CAVOK
Forecast period: 2100 UTC 16 February 2019 to 0600 UTC 17 February 2019
Forecast type: FROM: standard forecast or significant change
Winds: from the ESE (110 degrees) at 6 MPH (5 knots; 2.6 m/s)
Visibility: 6 or more miles 10+ km)
Ceiling: unknown
Clouds: missing
Weather: NSW  (no significant weather)